createdAt,value
2022-12-13T00:01:42.757Z,94081.25
2022-12-13T00:04:10.675Z,94086.16
2022-12-13T00:06:37.833Z,94079.47
2022-12-13T00:09:06.368Z,94083.38
2022-12-13T00:11:33.364Z,94093.75
2022-12-13T00:14:00.408Z,94096.66
2022-12-13T00:16:28.064Z,94094.47
2022-12-13T00:19:00.291Z,94104.31
2022-12-13T00:21:30.166Z,94100.69
2022-12-13T00:23:57.880Z,94097.75
2022-12-13T00:26:32.574Z,94103.00
2022-12-13T00:29:05.339Z,94091.38
2022-12-13T00:34:19.839Z,94100.47
2022-12-13T00:36:46.995Z,94107.84
2022-12-13T00:39:16.770Z,94110.50
2022-12-13T00:41:44.446Z,94100.66
2022-12-13T00:44:14.642Z,94103.22
2022-12-13T00:46:42.483Z,94101.06
2022-12-13T00:49:10.904Z,94100.28
2022-12-13T00:51:38.255Z,94097.13
2022-12-13T00:54:05.673Z,94110.91
2022-12-13T00:56:34.072Z,94110.34
2022-12-13T00:59:01.474Z,94109.94
2022-12-13T01:01:32.152Z,94113.72
2022-12-13T01:04:01.572Z,94113.88
2022-12-13T01:06:35.938Z,94105.63
2022-12-13T01:09:05.979Z,94120.31
2022-12-13T01:11:33.042Z,94117.31
2022-12-13T01:14:00.186Z,94111.22
2022-12-13T01:16:27.417Z,94112.81
2022-12-13T01:18:54.680Z,94108.63
2022-12-13T01:21:22.167Z,94117.63
2022-12-13T01:23:49.685Z,94103.78
2022-12-13T01:26:19.900Z,94107.25
2022-12-13T01:28:48.051Z,94094.16
2022-12-13T01:31:17.764Z,94096.34
2022-12-13T01:33:44.769Z,94099.16
2022-12-13T01:36:15.444Z,94092.19
2022-12-13T01:38:42.989Z,94105.41
2022-12-13T01:41:17.502Z,94088.72
2022-12-13T01:43:55.094Z,94107.94
2022-12-13T01:46:22.205Z,94100.19
2022-12-13T01:49:21.361Z,94108.56
2022-12-13T01:52:03.267Z,94107.47
2022-12-13T01:54:34.140Z,94104.69
2022-12-13T01:57:04.568Z,94104.03
2022-12-13T01:59:32.779Z,94100.34
2022-12-13T02:02:00.861Z,94098.81
2022-12-13T02:05:29.130Z,94102.50
2022-12-13T02:07:58.287Z,94096.22
2022-12-13T02:10:26.143Z,94096.63
2022-12-13T02:12:53.246Z,94099.97
2022-12-13T02:15:21.146Z,94101.06
2022-12-13T02:18:25.259Z,94095.97
2022-12-13T02:21:16.389Z,94105.88
2022-12-13T02:24:48.185Z,94108.38
2022-12-13T02:28:00.776Z,94099.41
2022-12-13T02:30:49.152Z,94102.56
2022-12-13T02:39:31.159Z,94110.78
2022-12-13T02:42:05.342Z,94117.50
2022-12-13T02:44:42.308Z,94113.69
2022-12-13T02:47:22.168Z,94120.28
2022-12-13T02:49:56.022Z,94111.00
2022-12-13T02:52:27.151Z,94112.75
2022-12-13T02:54:55.811Z,94117.22
2022-12-13T02:57:37.427Z,94120.13
2022-12-13T03:00:09.101Z,94121.56
2022-12-13T03:03:01.205Z,94115.19
2022-12-13T03:06:33.486Z,94116.28
2022-12-13T03:09:42.471Z,94113.91
2022-12-13T03:13:05.467Z,94120.72
2022-12-13T03:15:53.424Z,94124.47
2022-12-13T03:18:24.047Z,94112.69
2022-12-13T03:23:48.062Z,94116.66
2022-12-13T03:26:22.670Z,94116.75
2022-12-13T03:28:50.411Z,94110.50
2022-12-13T03:31:18.051Z,94117.50
2022-12-13T03:33:46.812Z,94126.19
2022-12-13T03:36:14.826Z,94125.66
2022-12-13T03:38:42.294Z,94127.34
2022-12-13T03:41:13.689Z,94124.41
2022-12-13T03:43:41.610Z,94124.78
2022-12-13T03:46:09.724Z,94130.28
2022-12-13T03:48:37.178Z,94128.59
2022-12-13T03:51:04.883Z,94139.69
2022-12-13T03:53:32.417Z,94149.25
2022-12-13T03:56:03.256Z,94139.31
2022-12-13T03:58:35.917Z,94150.38
2022-12-13T04:01:14.950Z,94150.88
2022-12-13T04:03:43.702Z,94147.34
2022-12-13T04:06:11.236Z,94147.41
2022-12-13T04:08:39.254Z,94144.47
2022-12-13T04:11:25.526Z,94155.66
2022-12-13T04:13:53.683Z,94168.94
2022-12-13T04:16:21.253Z,94162.06
2022-12-13T04:18:48.484Z,94170.16
2022-12-13T04:21:15.633Z,94176.00
2022-12-13T04:23:42.716Z,94169.50
2022-12-13T04:26:10.548Z,94180.19
2022-12-13T04:28:37.579Z,94184.81
2022-12-13T04:31:04.746Z,94192.53
2022-12-13T04:33:32.962Z,94204.34
2022-12-13T04:36:00.095Z,94198.56
2022-12-13T04:38:27.246Z,94206.63
2022-12-13T04:40:54.282Z,94208.97
2022-12-13T04:43:21.265Z,94205.66
2022-12-13T04:45:48.481Z,94215.94
2022-12-13T04:48:30.330Z,94230.41
2022-12-13T04:51:01.298Z,94223.84
2022-12-13T04:53:30.143Z,94228.00
2022-12-13T04:55:57.379Z,94227.34
2022-12-13T04:58:24.413Z,94230.97
2022-12-13T05:00:51.465Z,94226.78
2022-12-13T05:03:18.601Z,94228.28
2022-12-13T05:05:45.527Z,94222.56
2022-12-13T05:08:12.503Z,94234.72
2022-12-13T05:10:39.510Z,94235.09
2022-12-13T05:13:06.826Z,94232.88
2022-12-13T05:15:34.829Z,94225.53
2022-12-13T05:18:09.618Z,94227.34
2022-12-13T05:20:39.474Z,94227.59
2022-12-13T05:23:06.658Z,94245.59
2022-12-13T05:25:34.606Z,94237.34
2022-12-13T05:28:08.770Z,94237.00
2022-12-13T05:30:39.364Z,94252.78
2022-12-13T05:33:06.318Z,94255.44
2022-12-13T05:35:34.038Z,94244.72
2022-12-13T05:38:01.179Z,94250.84
2022-12-13T05:40:30.378Z,94247.78
2022-12-13T05:43:01.224Z,94258.03
2022-12-13T05:45:30.051Z,94261.72
2022-12-13T05:47:57.616Z,94264.28
2022-12-13T05:50:25.389Z,94261.06
2022-12-13T05:52:52.696Z,94261.16
2022-12-13T05:55:19.996Z,94265.19
2022-12-13T05:57:50.797Z,94280.66
2022-12-13T06:00:29.955Z,94282.47
2022-12-13T06:03:00.940Z,94286.75
2022-12-13T06:05:29.975Z,94295.19
2022-12-13T06:07:59.070Z,94288.97
2022-12-13T06:10:34.094Z,94284.56
2022-12-13T06:13:22.135Z,94288.22
2022-12-13T06:15:51.387Z,94285.94
2022-12-13T06:18:18.485Z,94281.72
2022-12-13T06:20:48.315Z,94288.38
2022-12-13T06:23:15.318Z,94281.34
2022-12-13T06:25:46.308Z,94283.09
2022-12-13T06:28:16.463Z,94276.97
2022-12-13T06:30:43.916Z,94277.19
2022-12-13T06:33:14.102Z,94282.53
2022-12-13T06:35:52.842Z,94286.41
2022-12-13T06:38:31.738Z,94275.38
2022-12-13T06:41:14.322Z,94284.53
2022-12-13T06:43:45.964Z,94290.81
2022-12-13T06:46:14.141Z,94296.88
2022-12-13T06:48:42.065Z,94294.06
2022-12-13T06:51:10.459Z,94292.09
2022-12-13T06:53:39.771Z,94292.56
2022-12-13T06:56:09.413Z,94287.47
2022-12-13T06:58:36.806Z,94301.91
2022-12-13T07:01:27.406Z,94291.34
2022-12-13T07:04:03.728Z,94289.84
2022-12-13T07:06:31.217Z,94298.78
2022-12-13T07:08:58.516Z,94302.16
2022-12-13T07:11:28.604Z,94294.53
2022-12-13T07:13:56.344Z,94300.94
2022-12-13T07:16:24.159Z,94309.63
2022-12-13T07:19:01.107Z,94305.31
2022-12-13T07:21:29.352Z,94304.06
2022-12-13T07:23:56.773Z,94303.88
2022-12-13T07:26:24.290Z,94310.53
2022-12-13T07:28:55.382Z,94312.53
2022-12-13T07:31:24.495Z,94316.78
2022-12-13T07:33:52.309Z,94314.13
2022-12-13T07:36:22.016Z,94313.94
2022-12-13T07:38:53.800Z,94321.84
2022-12-13T07:41:23.210Z,94316.75
2022-12-13T07:43:55.125Z,94313.91
2022-12-13T07:46:32.644Z,94317.84
2022-12-13T07:49:04.925Z,94321.84
2022-12-13T07:51:35.441Z,94318.53
2022-12-13T07:54:06.275Z,94326.72
2022-12-13T07:56:35.149Z,94327.94
2022-12-13T07:59:02.774Z,94324.41
2022-12-13T08:01:34.976Z,94319.34
2022-12-13T08:04:03.386Z,94323.34
2022-12-13T08:06:34.491Z,94325.44
2022-12-13T08:09:01.439Z,94328.97
2022-12-13T08:11:28.565Z,94333.63
2022-12-13T08:13:55.576Z,94341.06
2022-12-13T08:16:26.780Z,94342.03
2022-12-13T08:19:02.796Z,94343.00
2022-12-13T08:22:01.335Z,94346.59
2022-12-13T08:24:30.481Z,94349.25
2022-12-13T08:27:03.201Z,94349.72
2022-12-13T08:29:34.603Z,94348.13
2022-12-13T08:32:09.104Z,94333.13
2022-12-13T08:34:36.661Z,94326.97
2022-12-13T08:37:04.646Z,94317.22
2022-12-13T08:39:37.005Z,94334.16
2022-12-13T08:42:19.565Z,94325.72
2022-12-13T08:44:49.248Z,94329.53
2022-12-13T08:47:24.518Z,94328.34
2022-12-13T08:50:04.540Z,94327.84
2022-12-13T08:52:40.170Z,94319.84
2022-12-13T08:55:14.071Z,94315.38
2022-12-13T08:57:42.406Z,94307.72
2022-12-13T09:00:13.279Z,94303.13
2022-12-13T09:02:40.443Z,94295.97
2022-12-13T09:05:09.622Z,94296.31
2022-12-13T09:07:37.481Z,94288.38
2022-12-13T09:10:25.425Z,94290.38
2022-12-13T09:13:03.231Z,94291.44
2022-12-13T10:09:42.562Z,94252.59
2022-12-13T10:16:23.855Z,94251.06
2022-12-13T10:22:30.540Z,94234.06
2022-12-13T10:36:59.903Z,94213.16
2022-12-13T10:40:08.525Z,94199.81
2022-12-13T10:46:43.227Z,94201.50
2022-12-13T10:57:16.631Z,94186.59
2022-12-13T11:00:41.449Z,94190.53
2022-12-13T11:03:22.377Z,94179.59
2022-12-13T11:20:43.508Z,94162.84
2022-12-13T11:26:44.505Z,94157.56
2022-12-13T11:30:15.955Z,94175.06
2022-12-13T11:41:46.438Z,94163.13
2022-12-13T11:48:40.002Z,94170.94
2022-12-13T12:38:12.619Z,94140.56
2022-12-13T12:41:19.942Z,94142.22
2022-12-13T12:44:05.892Z,94145.56
2022-12-13T12:47:31.554Z,94147.09
2022-12-13T12:50:20.479Z,94158.88
2022-12-13T12:53:17.532Z,94173.16
2022-12-13T12:56:29.223Z,94165.34
2022-12-13T12:59:15.608Z,94161.34
2022-12-13T13:02:14.550Z,94167.56
2022-12-13T13:04:48.918Z,94167.78
2022-12-13T13:07:39.565Z,94174.97
2022-12-13T13:10:16.197Z,94175.19
2022-12-13T13:12:52.913Z,94181.16
2022-12-13T13:15:55.932Z,94192.78
2022-12-13T13:19:02.438Z,94192.34
2022-12-13T13:21:53.173Z,94213.34
2022-12-13T13:24:28.578Z,94233.44
2022-12-13T13:27:19.821Z,94232.41
2022-12-13T13:29:47.176Z,94221.69
2022-12-13T13:32:32.734Z,94216.19
2022-12-13T14:14:49.893Z,94175.78
2022-12-13T14:22:19.892Z,94177.16
2022-12-13T14:25:52.246Z,94170.53
2022-12-13T15:26:28.976Z,94227.50
2022-12-13T15:29:00.759Z,94240.78
2022-12-13T15:31:28.621Z,94245.84
2022-12-13T15:34:28.929Z,94251.38
2022-12-13T15:36:59.480Z,94243.69
2022-12-13T15:39:29.282Z,94247.38
2022-12-13T15:41:56.580Z,94239.97
2022-12-13T15:44:39.349Z,94236.84
2022-12-13T15:47:28.800Z,94230.47
2022-12-13T15:50:06.504Z,94227.50
2022-12-13T15:52:41.575Z,94227.75
2022-12-13T15:55:34.236Z,94226.16
2022-12-13T15:58:01.941Z,94211.28
2022-12-13T16:00:35.406Z,94213.91
2022-12-13T16:03:47.501Z,94211.81
2022-12-13T16:06:25.913Z,94218.69
2022-12-13T16:09:04.841Z,94222.97
2022-12-13T16:11:38.431Z,94220.06
2022-12-13T16:14:50.638Z,94221.41
2022-12-13T16:17:25.286Z,94230.97
2022-12-13T16:19:54.180Z,94225.69
2022-12-13T16:22:24.016Z,94222.75
2022-12-13T16:24:52.798Z,94230.72
2022-12-13T16:27:19.819Z,94226.69
2022-12-13T16:29:46.803Z,94221.66
2022-12-13T16:32:14.082Z,94218.47
2022-12-13T16:34:41.144Z,94223.50
2022-12-13T16:37:26.435Z,94219.78
2022-12-13T16:39:56.688Z,94225.59
2022-12-13T16:42:26.318Z,94224.28
2022-12-13T16:45:17.888Z,94225.09
2022-12-13T16:47:48.469Z,94220.31
2022-12-13T16:50:19.030Z,94226.94
2022-12-13T16:52:46.657Z,94228.56
2022-12-13T16:55:13.852Z,94231.53
2022-12-13T16:57:40.790Z,94227.81
2022-12-13T17:00:10.945Z,94238.44
2022-12-13T17:02:38.779Z,94239.75
2022-12-13T17:05:06.340Z,94237.66
2022-12-13T17:07:33.957Z,94238.97
2022-12-13T17:10:02.229Z,94232.63
2022-12-13T17:12:29.795Z,94237.13
2022-12-13T17:14:57.042Z,94237.94
2022-12-13T17:17:24.155Z,94239.53
2022-12-13T17:19:51.166Z,94237.94
2022-12-13T17:22:18.564Z,94234.22
2022-12-13T17:24:46.467Z,94232.63
2022-12-13T17:27:14.157Z,94227.56
2022-12-13T17:29:41.193Z,94223.03
2022-12-13T17:32:08.471Z,94225.72
2022-12-13T17:34:36.164Z,94228.91
2022-12-13T17:37:09.998Z,94228.13
2022-12-13T17:39:37.742Z,94231.03
2022-12-13T17:42:05.012Z,94231.81
2022-12-13T17:44:32.320Z,94220.94
2022-12-13T17:46:59.551Z,94229.44
2022-12-13T17:49:27.107Z,94225.19
2022-12-13T17:51:54.767Z,94228.91
2022-12-13T17:54:24.337Z,94240.84
2022-12-13T17:56:52.337Z,94242.69
2022-12-13T17:59:20.039Z,94237.66
2022-12-13T18:01:47.731Z,94243.25
2022-12-13T18:04:15.512Z,94238.44
2022-12-13T18:06:42.882Z,94242.19
2022-12-13T18:09:12.729Z,94237.38
2022-12-13T18:11:40.319Z,94237.28
2022-12-13T18:14:11.381Z,94230.09
2022-12-13T18:16:40.172Z,94231.97
2022-12-13T18:19:10.785Z,94227.72
2022-12-13T18:21:38.088Z,94228.22
2022-12-13T18:24:07.018Z,94240.41
2022-12-13T18:26:34.807Z,94237.28
2022-12-13T18:29:03.134Z,94238.31
2022-12-13T18:31:30.423Z,94234.34
2022-12-13T18:33:57.490Z,94256.88
2022-12-13T18:36:26.008Z,94254.47
2022-12-13T18:38:53.357Z,94256.88
2022-12-13T18:41:23.515Z,94249.97
2022-12-13T18:44:08.256Z,94255.47
2022-12-13T18:46:37.492Z,94254.69
2022-12-13T18:49:05.829Z,94257.66
2022-12-13T18:51:33.177Z,94262.19
2022-12-13T18:54:00.618Z,94273.63
2022-12-13T18:56:27.915Z,94280.78
2022-12-13T18:58:58.142Z,94271.25
2022-12-13T19:01:28.268Z,94275.47
2022-12-13T19:03:55.678Z,94273.88
2022-12-13T19:06:27.940Z,94276.53
2022-12-13T19:08:57.121Z,94269.34
2022-12-13T19:11:27.919Z,94266.72
2022-12-13T19:13:55.639Z,94263.47
2022-12-13T19:16:24.844Z,94266.31
2022-12-13T19:18:52.085Z,94266.31
2022-12-13T19:21:21.954Z,94267.53
2022-12-13T19:23:56.464Z,94267.78
2022-12-13T19:26:25.036Z,94266.72
2022-12-13T19:28:52.006Z,94277.84
2022-12-13T19:31:24.251Z,94277.28
2022-12-13T19:33:56.154Z,94258.47
2022-12-13T19:36:23.747Z,94253.69
2022-12-13T19:38:52.311Z,94253.94
2022-12-13T19:41:19.356Z,94251.84
2022-12-13T19:43:52.607Z,94254.75
2022-12-13T19:46:20.301Z,94262.41
2022-12-13T19:48:48.452Z,94269.56
2022-12-13T19:51:16.100Z,94271.97
2022-12-13T19:53:43.220Z,94279.66
2022-12-13T19:56:17.789Z,94278.06
2022-12-13T19:58:46.297Z,94270.88
2022-12-13T20:01:13.966Z,94268.94
2022-12-13T20:03:43.789Z,94281.41
2022-12-13T20:06:13.011Z,94274.75
2022-12-13T20:08:40.968Z,94273.44
2022-12-13T20:11:13.677Z,94271.41
2022-12-13T20:13:40.775Z,94269.34
2022-12-13T20:16:07.924Z,94269.13
2022-12-13T20:18:35.134Z,94267.34
2022-12-13T20:21:12.962Z,94268.16
2022-12-13T20:23:42.408Z,94266.59
2022-12-13T20:26:19.934Z,94267.38
2022-12-13T20:28:47.478Z,94271.38
2022-12-13T20:31:35.179Z,94257.88
2022-12-13T20:34:04.699Z,94258.19
2022-12-13T20:36:31.744Z,94255.53
2022-12-13T20:39:00.449Z,94252.63
2022-12-13T20:41:30.454Z,94257.13
2022-12-13T20:43:59.291Z,94250.75
2022-12-13T20:46:27.841Z,94256.34
2022-12-13T20:48:57.776Z,94262.22
2022-12-13T20:51:27.232Z,94278.44
2022-12-13T20:53:55.860Z,94285.06
2022-12-13T20:56:24.847Z,94279.28
2022-12-13T20:58:52.291Z,94282.72
2022-12-13T21:01:25.153Z,94276.44
2022-12-13T21:03:57.167Z,94283.28
2022-12-13T21:06:24.415Z,94286.06
2022-12-13T21:08:51.478Z,94287.59
2022-12-13T21:11:33.060Z,94289.19
2022-12-13T21:14:11.043Z,94286.19
2022-12-13T21:16:44.655Z,94287.78
2022-12-13T21:19:18.117Z,94283.06
2022-12-13T21:21:45.473Z,94279.59
2022-12-13T21:24:17.432Z,94288.47
2022-12-13T21:26:45.394Z,94290.03
2022-12-13T21:29:16.514Z,94295.38
2022-12-13T21:31:49.054Z,94296.00
2022-12-13T21:34:18.032Z,94285.81
2022-12-13T21:36:47.357Z,94292.88
2022-12-13T21:39:18.061Z,94300.09
2022-12-13T21:41:45.764Z,94303.50
2022-12-13T21:44:15.393Z,94296.34
2022-12-13T21:49:30.105Z,94300.06
2022-12-13T21:52:01.500Z,94293.97
2022-12-13T21:54:30.877Z,94288.84
2022-12-13T21:57:16.250Z,94284.34
2022-12-13T21:59:43.481Z,94287.56
2022-12-13T22:02:18.035Z,94294.75
2022-12-13T22:04:51.100Z,94296.34
2022-12-13T22:07:20.753Z,94282.63
2022-12-13T22:09:48.483Z,94282.19
2022-12-13T22:12:36.914Z,94294.94
2022-12-13T22:15:06.108Z,94285.41
2022-12-13T22:17:35.949Z,94294.31
2022-12-13T22:20:05.737Z,94296.34
2022-12-13T22:22:32.925Z,94303.25
2022-12-13T22:24:59.936Z,94303.75
2022-12-13T22:27:27.240Z,94292.38
2022-12-13T22:29:59.358Z,94296.34
2022-12-13T22:32:28.724Z,94286.78
2022-12-13T22:34:56.450Z,94301.84
2022-12-13T22:37:23.718Z,94302.34
2022-12-13T22:39:50.718Z,94308.69
2022-12-13T22:42:19.671Z,94312.84
2022-12-13T22:44:46.762Z,94309.63
2022-12-13T22:47:13.959Z,94305.38
2022-12-13T22:49:40.962Z,94302.97
2022-12-13T22:52:08.042Z,94309.94
2022-12-13T22:54:35.258Z,94314.44
2022-12-13T22:57:02.407Z,94315.41
2022-12-13T22:59:29.602Z,94311.25
2022-12-13T23:02:02.517Z,94313.28
2022-12-13T23:04:32.968Z,94310.06
2022-12-13T23:07:00.420Z,94309.47
2022-12-13T23:09:27.677Z,94301.56
2022-12-13T23:12:13.161Z,94301.56
2022-12-13T23:14:40.759Z,94310.56
2022-12-13T23:17:07.968Z,94305.31
2022-12-13T23:19:50.903Z,94313.75
2022-12-13T23:22:22.758Z,94306.56
2022-12-13T23:24:50.887Z,94306.31
2022-12-13T23:27:20.065Z,94310.06
2022-12-13T23:29:47.214Z,94313.28
2022-12-13T23:32:14.266Z,94310.66
2022-12-13T23:34:41.299Z,94317.63
2022-12-13T23:37:08.289Z,94309.66
2022-12-13T23:39:35.333Z,94317.56
2022-12-13T23:42:02.424Z,94319.66
2022-12-13T23:44:29.441Z,94321.78
2022-12-13T23:46:56.393Z,94322.34
2022-12-13T23:49:23.392Z,94322.34
2022-12-13T23:51:50.360Z,94319.72
2022-12-13T23:54:19.605Z,94330.06
2022-12-13T23:56:47.216Z,94313.34
2022-12-13T23:59:14.237Z,94311.47
